sensor_id;sensor_type;location;lat;lon;timestamp;temperature;humidity
21149;DHT22;10732;51.472;6.466;2022-11-20T00:01:22;-1.80;99.90
21149;DHT22;10732;51.472;6.466;2022-11-20T00:03:48;-1.80;99.90
21149;DHT22;10732;51.472;6.466;2022-11-20T00:06:16;-1.80;99.90
21149;DHT22;10732;51.472;6.466;2022-11-20T00:08:42;-1.80;99.90
21149;DHT22;10732;51.472;6.466;2022-11-20T00:11:13;-1.80;99.90
21149;DHT22;10732;51.472;6.466;2022-11-20T00:13:39;-1.80;99.90
21149;DHT22;10732;51.472;6.466;2022-11-20T00:16:07;-1.70;99.90
21149;DHT22;10732;51.472;6.466;2022-11-20T00:18:34;-1.70;99.90
21149;DHT22;10732;51.472;6.466;2022-11-20T00:21:09;-1.70;99.90
21149;DHT22;10732;51.472;6.466;2022-11-20T00:23:35;-1.60;99.90
21149;DHT22;10732;51.472;6.466;2022-11-20T00:26:06;-1.60;99.90
21149;DHT22;10732;51.472;6.466;2022-11-20T00:28:32;-1.60;99.90
21149;DHT22;10732;51.472;6.466;2022-11-20T00:31:09;-1.50;99.90
21149;DHT22;10732;51.472;6.466;2022-11-20T00:33:35;-1.50;99.90
21149;DHT22;10732;51.472;6.466;2022-11-20T00:36:02;-1.50;99.90
21149;DHT22;10732;51.472;6.466;2022-11-20T00:38:29;-1.40;99.90
21149;DHT22;10732;51.472;6.466;2022-11-20T00:40:57;-1.50;99.90
21149;DHT22;10732;51.472;6.466;2022-11-20T00:43:23;-1.50;99.90
21149;DHT22;10732;51.472;6.466;2022-11-20T00:45:48;-1.50;99.90
21149;DHT22;10732;51.472;6.466;2022-11-20T00:48:14;-1.50;99.90
21149;DHT22;10732;51.472;6.466;2022-11-20T00:50:41;-1.50;99.90
21149;DHT22;10732;51.472;6.466;2022-11-20T00:53:06;-1.50;99.90
21149;DHT22;10732;51.472;6.466;2022-11-20T00:55:32;-1.60;99.90
21149;DHT22;10732;51.472;6.466;2022-11-20T00:57:57;-1.60;99.90
21149;DHT22;10732;51.472;6.466;2022-11-20T01:00:23;-1.70;99.90
21149;DHT22;10732;51.472;6.466;2022-11-20T01:02:48;-1.80;99.90
21149;DHT22;10732;51.472;6.466;2022-11-20T01:05:14;-1.80;99.90
21149;DHT22;10732;51.472;6.466;2022-11-20T01:07:39;-1.90;99.90
21149;DHT22;10732;51.472;6.466;2022-11-20T01:10:05;-2.00;99.90
21149;DHT22;10732;51.472;6.466;2022-11-20T01:12:31;-2.00;99.90
21149;DHT22;10732;51.472;6.466;2022-11-20T01:14:57;-2.10;99.90
21149;DHT22;10732;51.472;6.466;2022-11-20T01:17:22;-2.20;99.90
21149;DHT22;10732;51.472;6.466;2022-11-20T01:19:51;-2.20;99.90
21149;DHT22;10732;51.472;6.466;2022-11-20T01:22:16;-2.20;99.90
21149;DHT22;10732;51.472;6.466;2022-11-20T01:24:42;-2.20;99.90
21149;DHT22;10732;51.472;6.466;2022-11-20T01:27:07;-2.20;99.90
21149;DHT22;10732;51.472;6.466;2022-11-20T01:29:33;-2.20;99.90
21149;DHT22;10732;51.472;6.466;2022-11-20T01:31:58;-2.10;99.90
21149;DHT22;10732;51.472;6.466;2022-11-20T01:34:24;-2.10;99.90
21149;DHT22;10732;51.472;6.466;2022-11-20T01:36:51;-2.10;99.90
21149;DHT22;10732;51.472;6.466;2022-11-20T01:39:24;-2.20;99.90
21149;DHT22;10732;51.472;6.466;2022-11-20T01:41:52;-2.20;99.90
21149;DHT22;10732;51.472;6.466;2022-11-20T01:47:43;-2.20;99.90
21149;DHT22;10732;51.472;6.466;2022-11-20T01:50:14;-2.30;99.90
21149;DHT22;10732;51.472;6.466;2022-11-20T01:52:47;-2.30;99.90
21149;DHT22;10732;51.472;6.466;2022-11-20T01:55:45;-2.40;99.90
21149;DHT22;10732;51.472;6.466;2022-11-20T01:58:13;-2.40;99.90
21149;DHT22;10732;51.472;6.466;2022-11-20T02:00:40;-2.40;99.90
21149;DHT22;10732;51.472;6.466;2022-11-20T02:03:08;-2.50;99.90
21149;DHT22;10732;51.472;6.466;2022-11-20T02:08:12;-2.50;99.90
21149;DHT22;10732;51.472;6.466;2022-11-20T02:10:38;-2.60;99.90
21149;DHT22;10732;51.472;6.466;2022-11-20T02:13:04;-2.60;99.90
21149;DHT22;10732;51.472;6.466;2022-11-20T02:15:49;-2.60;99.90
21149;DHT22;10732;51.472;6.466;2022-11-20T02:18:16;-2.70;99.90
21149;DHT22;10732;51.472;6.466;2022-11-20T02:20:44;-2.70;99.90
21149;DHT22;10732;51.472;6.466;2022-11-20T02:23:51;-2.70;99.90
21149;DHT22;10732;51.472;6.466;2022-11-20T02:26:17;-2.70;99.90
21149;DHT22;10732;51.472;6.466;2022-11-20T02:28:44;-2.70;99.90
21149;DHT22;10732;51.472;6.466;2022-11-20T02:31:09;-2.70;99.90
21149;DHT22;10732;51.472;6.466;2022-11-20T02:33:35;-2.70;99.90
21149;DHT22;10732;51.472;6.466;2022-11-20T02:36:00;-2.70;99.90
21149;DHT22;10732;51.472;6.466;2022-11-20T02:38:26;-2.80;99.90
21149;DHT22;10732;51.472;6.466;2022-11-20T02:40:52;-2.80;99.90
21149;DHT22;10732;51.472;6.466;2022-11-20T02:43:17;-2.80;99.90
21149;DHT22;10732;51.472;6.466;2022-11-20T02:45:43;-2.80;99.90
21149;DHT22;10732;51.472;6.466;2022-11-20T02:48:08;-2.80;99.90
21149;DHT22;10732;51.472;6.466;2022-11-20T02:50:37;-2.90;99.90
21149;DHT22;10732;51.472;6.466;2022-11-20T02:53:02;-2.80;99.90
21149;DHT22;10732;51.472;6.466;2022-11-20T02:55:28;-2.90;99.90
21149;DHT22;10732;51.472;6.466;2022-11-20T02:57:53;-2.90;99.90
21149;DHT22;10732;51.472;6.466;2022-11-20T03:00:19;-3.00;99.90
21149;DHT22;10732;51.472;6.466;2022-11-20T03:02:44;-3.00;99.90
21149;DHT22;10732;51.472;6.466;2022-11-20T03:05:10;-3.00;99.90
21149;DHT22;10732;51.472;6.466;2022-11-20T03:07:36;-3.00;99.90
21149;DHT22;10732;51.472;6.466;2022-11-20T03:10:01;-3.00;99.90
21149;DHT22;10732;51.472;6.466;2022-11-20T03:12:27;-3.00;99.90
21149;DHT22;10732;51.472;6.466;2022-11-20T03:14:52;-3.00;99.90
21149;DHT22;10732;51.472;6.466;2022-11-20T03:17:18;-3.00;99.90
21149;DHT22;10732;51.472;6.466;2022-11-20T03:19:43;-3.00;99.90
21149;DHT22;10732;51.472;6.466;2022-11-20T03:22:09;-3.10;99.90
21149;DHT22;10732;51.472;6.466;2022-11-20T03:24:34;-3.00;99.90
21149;DHT22;10732;51.472;6.466;2022-11-20T03:27:00;-3.00;99.90
21149;DHT22;10732;51.472;6.466;2022-11-20T03:29:25;-3.00;99.90
21149;DHT22;10732;51.472;6.466;2022-11-20T03:31:51;-3.00;99.90
21149;DHT22;10732;51.472;6.466;2022-11-20T03:34:16;-2.90;99.90
21149;DHT22;10732;51.472;6.466;2022-11-20T03:36:43;-2.80;99.90
21149;DHT22;10732;51.472;6.466;2022-11-20T03:39:09;-2.80;99.90
21149;DHT22;10732;51.472;6.466;2022-11-20T03:41:40;-2.80;99.90
21149;DHT22;10732;51.472;6.466;2022-11-20T03:44:08;-2.80;99.90
21149;DHT22;10732;51.472;6.466;2022-11-20T03:46:34;-2.80;99.90
21149;DHT22;10732;51.472;6.466;2022-11-20T03:49:00;-2.80;99.90
21149;DHT22;10732;51.472;6.466;2022-11-20T03:51:29;-2.80;99.90
21149;DHT22;10732;51.472;6.466;2022-11-20T03:53:57;-2.80;99.90
21149;DHT22;10732;51.472;6.466;2022-11-20T03:56:28;-2.80;99.90
21149;DHT22;10732;51.472;6.466;2022-11-20T03:58:54;-2.80;99.90
21149;DHT22;10732;51.472;6.466;2022-11-20T04:01:22;-2.70;99.90
21149;DHT22;10732;51.472;6.466;2022-11-20T04:03:48;-2.70;99.90
21149;DHT22;10732;51.472;6.466;2022-11-20T04:06:17;-2.60;99.90
21149;DHT22;10732;51.472;6.466;2022-11-20T04:08:43;-2.50;99.90
21149;DHT22;10732;51.472;6.466;2022-11-20T04:13:34;-2.40;99.90
21149;DHT22;10732;51.472;6.466;2022-11-20T04:16:00;-2.30;99.90
21149;DHT22;10732;51.472;6.466;2022-11-20T04:18:25;-2.20;99.90
21149;DHT22;10732;51.472;6.466;2022-11-20T04:20:51;-2.10;99.90
21149;DHT22;10732;51.472;6.466;2022-11-20T04:23:16;-2.00;99.90
21149;DHT22;10732;51.472;6.466;2022-11-20T04:25:42;-1.90;99.90
21149;DHT22;10732;51.472;6.466;2022-11-20T04:28:07;-1.90;99.90
21149;DHT22;10732;51.472;6.466;2022-11-20T04:30:33;-1.80;99.90
21149;DHT22;10732;51.472;6.466;2022-11-20T04:32:58;-1.80;99.90
21149;DHT22;10732;51.472;6.466;2022-11-20T04:35:24;-1.80;99.90
21149;DHT22;10732;51.472;6.466;2022-11-20T04:37:51;-1.80;99.90
21149;DHT22;10732;51.472;6.466;2022-11-20T04:40:17;-1.70;99.90
21149;DHT22;10732;51.472;6.466;2022-11-20T04:42:43;-1.60;99.90
21149;DHT22;10732;51.472;6.466;2022-11-20T04:45:08;-1.60;99.90
21149;DHT22;10732;51.472;6.466;2022-11-20T04:47:34;-1.50;99.90
21149;DHT22;10732;51.472;6.466;2022-11-20T04:49:59;-1.50;99.90
21149;DHT22;10732;51.472;6.466;2022-11-20T04:52:25;-1.50;99.90
21149;DHT22;10732;51.472;6.466;2022-11-20T04:54:50;-1.40;99.90
21149;DHT22;10732;51.472;6.466;2022-11-20T04:57:18;-1.40;99.90
21149;DHT22;10732;51.472;6.466;2022-11-20T04:59:43;-1.50;99.90
21149;DHT22;10732;51.472;6.466;2022-11-20T05:02:10;-1.50;99.90
21149;DHT22;10732;51.472;6.466;2022-11-20T05:04:35;-1.50;99.90
21149;DHT22;10732;51.472;6.466;2022-11-20T05:07:01;-1.50;99.90
21149;DHT22;10732;51.472;6.466;2022-11-20T05:09:26;-1.50;99.90
21149;DHT22;10732;51.472;6.466;2022-11-20T05:11:52;-1.40;99.90
21149;DHT22;10732;51.472;6.466;2022-11-20T05:14:17;-1.30;99.90
21149;DHT22;10732;51.472;6.466;2022-11-20T05:16:43;-1.30;99.90
21149;DHT22;10732;51.472;6.466;2022-11-20T05:19:08;-1.30;99.90
21149;DHT22;10732;51.472;6.466;2022-11-20T05:21:34;-1.30;99.90
21149;DHT22;10732;51.472;6.466;2022-11-20T05:23:59;-1.30;99.90
21149;DHT22;10732;51.472;6.466;2022-11-20T05:26:25;-1.20;99.90
21149;DHT22;10732;51.472;6.466;2022-11-20T05:28:51;-1.20;99.90
21149;DHT22;10732;51.472;6.466;2022-11-20T05:31:19;-1.30;99.90
21149;DHT22;10732;51.472;6.466;2022-11-20T05:33:45;-1.20;99.90
21149;DHT22;10732;51.472;6.466;2022-11-20T05:36:12;-1.20;99.90
21149;DHT22;10732;51.472;6.466;2022-11-20T05:38:39;-1.20;99.90
21149;DHT22;10732;51.472;6.466;2022-11-20T05:43:36;-1.20;99.90
21149;DHT22;10732;51.472;6.466;2022-11-20T05:46:03;-1.20;99.90
21149;DHT22;10732;51.472;6.466;2022-11-20T05:48:28;-1.20;99.90
21149;DHT22;10732;51.472;6.466;2022-11-20T05:50:55;-1.10;99.90
21149;DHT22;10732;51.472;6.466;2022-11-20T05:53:21;-1.20;99.90
21149;DHT22;10732;51.472;6.466;2022-11-20T05:55:55;-1.20;99.90
21149;DHT22;10732;51.472;6.466;2022-11-20T05:58:20;-1.20;99.90
21149;DHT22;10732;51.472;6.466;2022-11-20T06:00:46;-1.20;99.90
21149;DHT22;10732;51.472;6.466;2022-11-20T06:03:11;-1.20;99.90
21149;DHT22;10732;51.472;6.466;2022-11-20T06:05:37;-1.10;99.90
21149;DHT22;10732;51.472;6.466;2022-11-20T06:08:02;-1.10;99.90
21149;DHT22;10732;51.472;6.466;2022-11-20T06:10:28;-1.10;99.90
21149;DHT22;10732;51.472;6.466;2022-11-20T06:12:56;-1.10;99.90
21149;DHT22;10732;51.472;6.466;2022-11-20T06:15:22;-1.10;99.90
21149;DHT22;10732;51.472;6.466;2022-11-20T06:17:54;-1.10;99.90
21149;DHT22;10732;51.472;6.466;2022-11-20T06:20:21;-1.20;99.90
21149;DHT22;10732;51.472;6.466;2022-11-20T06:22:46;-1.20;99.90
21149;DHT22;10732;51.472;6.466;2022-11-20T06:25:12;-1.20;99.90
21149;DHT22;10732;51.472;6.466;2022-11-20T06:27:38;-1.20;99.90
21149;DHT22;10732;51.472;6.466;2022-11-20T06:30:04;-1.20;99.90
21149;DHT22;10732;51.472;6.466;2022-11-20T06:32:30;-1.20;99.90
21149;DHT22;10732;51.472;6.466;2022-11-20T06:34:55;-1.20;99.90
21149;DHT22;10732;51.472;6.466;2022-11-20T06:37:21;-1.20;99.90
21149;DHT22;10732;51.472;6.466;2022-11-20T06:39:46;-1.20;99.90
21149;DHT22;10732;51.472;6.466;2022-11-20T06:42:12;-1.10;99.90
21149;DHT22;10732;51.472;6.466;2022-11-20T06:44:37;-1.20;99.90
21149;DHT22;10732;51.472;6.466;2022-11-20T06:47:03;-1.20;99.90
21149;DHT22;10732;51.472;6.466;2022-11-20T06:49:28;-1.10;99.90
21149;DHT22;10732;51.472;6.466;2022-11-20T06:51:54;-1.00;99.90
21149;DHT22;10732;51.472;6.466;2022-11-20T06:54:19;-1.00;99.90
21149;DHT22;10732;51.472;6.466;2022-11-20T06:56:48;-0.90;99.90
21149;DHT22;10732;51.472;6.466;2022-11-20T06:59:14;-0.90;99.90
21149;DHT22;10732;51.472;6.466;2022-11-20T07:01:39;-0.90;99.90
21149;DHT22;10732;51.472;6.466;2022-11-20T07:04:05;-0.80;99.90
21149;DHT22;10732;51.472;6.466;2022-11-20T07:06:31;-0.80;99.90
21149;DHT22;10732;51.472;6.466;2022-11-20T07:08:56;-0.80;99.90
21149;DHT22;10732;51.472;6.466;2022-11-20T07:11:22;-0.80;99.90
21149;DHT22;10732;51.472;6.466;2022-11-20T07:13:48;-0.90;99.90
21149;DHT22;10732;51.472;6.466;2022-11-20T07:16:14;-0.90;99.90
21149;DHT22;10732;51.472;6.466;2022-11-20T07:18:39;-0.80;99.90
21149;DHT22;10732;51.472;6.466;2022-11-20T07:21:08;-0.90;99.90
21149;DHT22;10732;51.472;6.466;2022-11-20T07:23:35;-0.80;99.90
21149;DHT22;10732;51.472;6.466;2022-11-20T07:26:08;-0.80;99.90
21149;DHT22;10732;51.472;6.466;2022-11-20T07:28:35;-0.90;99.90
21149;DHT22;10732;51.472;6.466;2022-11-20T07:31:01;-0.80;99.90
21149;DHT22;10732;51.472;6.466;2022-11-20T07:33:26;-0.90;99.90
21149;DHT22;10732;51.472;6.466;2022-11-20T07:35:52;-0.80;99.90
21149;DHT22;10732;51.472;6.466;2022-11-20T07:38:18;-0.80;99.90
21149;DHT22;10732;51.472;6.466;2022-11-20T07:40:43;-0.80;99.90
21149;DHT22;10732;51.472;6.466;2022-11-20T07:43:09;-0.80;99.90
21149;DHT22;10732;51.472;6.466;2022-11-20T07:45:34;-0.80;99.90
21149;DHT22;10732;51.472;6.466;2022-11-20T07:48:00;-0.70;99.90
21149;DHT22;10732;51.472;6.466;2022-11-20T07:50:25;-0.60;99.90
21149;DHT22;10732;51.472;6.466;2022-11-20T07:52:51;-0.60;99.90
21149;DHT22;10732;51.472;6.466;2022-11-20T07:55:17;-0.40;99.90
21149;DHT22;10732;51.472;6.466;2022-11-20T07:57:43;-0.40;99.90
21149;DHT22;10732;51.472;6.466;2022-11-20T08:00:10;-0.40;99.90
21149;DHT22;10732;51.472;6.466;2022-11-20T08:02:40;-0.30;99.90
21149;DHT22;10732;51.472;6.466;2022-11-20T08:05:07;-0.30;99.90
21149;DHT22;10732;51.472;6.466;2022-11-20T08:07:37;-0.30;99.90
21149;DHT22;10732;51.472;6.466;2022-11-20T08:10:04;-0.10;99.90
21149;DHT22;10732;51.472;6.466;2022-11-20T08:12:30;0.00;99.90
21149;DHT22;10732;51.472;6.466;2022-11-20T08:15:14;0.00;99.90
21149;DHT22;10732;51.472;6.466;2022-11-20T08:17:39;0.20;99.90
21149;DHT22;10732;51.472;6.466;2022-11-20T08:20:05;0.40;99.90
21149;DHT22;10732;51.472;6.466;2022-11-20T08:22:31;0.60;99.90
21149;DHT22;10732;51.472;6.466;2022-11-20T08:24:57;0.80;99.90
21149;DHT22;10732;51.472;6.466;2022-11-20T08:27:23;0.90;99.90
21149;DHT22;10732;51.472;6.466;2022-11-20T08:29:48;1.10;99.90
21149;DHT22;10732;51.472;6.466;2022-11-20T08:32:14;1.40;99.90
21149;DHT22;10732;51.472;6.466;2022-11-20T08:34:39;2.00;99.90
21149;DHT22;10732;51.472;6.466;2022-11-20T08:37:05;3.00;99.90
21149;DHT22;10732;51.472;6.466;2022-11-20T08:39:30;3.60;99.90
21149;DHT22;10732;51.472;6.466;2022-11-20T08:41:56;3.50;99.90
21149;DHT22;10732;51.472;6.466;2022-11-20T08:44:21;2.90;99.90
21149;DHT22;10732;51.472;6.466;2022-11-20T08:46:47;3.90;99.90
21149;DHT22;10732;51.472;6.466;2022-11-20T08:49:13;4.50;99.90
21149;DHT22;10732;51.472;6.466;2022-11-20T08:51:40;4.00;99.90
21149;DHT22;10732;51.472;6.466;2022-11-20T08:54:06;4.00;99.90
21149;DHT22;10732;51.472;6.466;2022-11-20T08:56:32;4.40;99.90
21149;DHT22;10732;51.472;6.466;2022-11-20T08:58:58;5.00;99.90
21149;DHT22;10732;51.472;6.466;2022-11-20T09:01:28;5.00;99.90
21149;DHT22;10732;51.472;6.466;2022-11-20T09:03:57;4.90;99.90
21149;DHT22;10732;51.472;6.466;2022-11-20T09:06:23;4.90;99.90
21149;DHT22;10732;51.472;6.466;2022-11-20T09:08:52;4.40;99.90
21149;DHT22;10732;51.472;6.466;2022-11-20T09:11:18;4.10;99.90
21149;DHT22;10732;51.472;6.466;2022-11-20T09:13:44;3.70;99.90
21149;DHT22;10732;51.472;6.466;2022-11-20T09:16:09;3.60;99.90
21149;DHT22;10732;51.472;6.466;2022-11-20T09:18:36;3.90;99.90
21149;DHT22;10732;51.472;6.466;2022-11-20T09:21:05;4.40;99.90
21149;DHT22;10732;51.472;6.466;2022-11-20T09:23:33;4.90;99.90
21149;DHT22;10732;51.472;6.466;2022-11-20T09:26:02;5.60;99.90
21149;DHT22;10732;51.472;6.466;2022-11-20T09:28:28;6.40;99.90
21149;DHT22;10732;51.472;6.466;2022-11-20T09:30:54;6.30;99.90
21149;DHT22;10732;51.472;6.466;2022-11-20T09:33:20;7.70;90.40
21149;DHT22;10732;51.472;6.466;2022-11-20T09:35:45;8.10;99.90
21149;DHT22;10732;51.472;6.466;2022-11-20T09:38:11;8.30;99.90
21149;DHT22;10732;51.472;6.466;2022-11-20T09:40:43;8.70;99.90
21149;DHT22;10732;51.472;6.466;2022-11-20T09:43:20;9.70;99.90
21149;DHT22;10732;51.472;6.466;2022-11-20T09:49:02;7.80;1.00
21149;DHT22;10732;51.472;6.466;2022-11-20T09:52:00;6.50;1.00
21149;DHT22;10732;51.472;6.466;2022-11-20T09:54:37;5.10;1.00
21149;DHT22;10732;51.472;6.466;2022-11-20T09:57:21;4.70;1.00
21149;DHT22;10732;51.472;6.466;2022-11-20T09:59:53;4.30;23.60
21149;DHT22;10732;51.472;6.466;2022-11-20T10:05:20;4.00;99.90
21149;DHT22;10732;51.472;6.466;2022-11-20T10:08:07;4.00;99.90
21149;DHT22;10732;51.472;6.466;2022-11-20T10:10:43;4.10;99.90
21149;DHT22;10732;51.472;6.466;2022-11-20T10:25:01;3.40;99.90
21149;DHT22;10732;51.472;6.466;2022-11-20T10:30:16;3.40;99.90
21149;DHT22;10732;51.472;6.466;2022-11-20T10:33:11;3.40;99.90
21149;DHT22;10732;51.472;6.466;2022-11-20T10:35:35;3.60;99.90
21149;DHT22;10732;51.472;6.466;2022-11-20T10:38:21;3.70;99.90
21149;DHT22;10732;51.472;6.466;2022-11-20T10:40:58;3.80;99.90
21149;DHT22;10732;51.472;6.466;2022-11-20T10:43:44;3.90;99.90
21149;DHT22;10732;51.472;6.466;2022-11-20T10:46:18;3.90;99.90
21149;DHT22;10732;51.472;6.466;2022-11-20T10:48:46;3.80;99.90
21149;DHT22;10732;51.472;6.466;2022-11-20T10:51:27;3.50;99.90
21149;DHT22;10732;51.472;6.466;2022-11-20T10:54:11;3.30;99.90
21149;DHT22;10732;51.472;6.466;2022-11-20T10:56:50;3.30;99.90
21149;DHT22;10732;51.472;6.466;2022-11-20T11:01:49;3.10;99.90
21149;DHT22;10732;51.472;6.466;2022-11-20T11:09:48;3.50;99.90
21149;DHT22;10732;51.472;6.466;2022-11-20T11:12:14;3.50;99.90
21149;DHT22;10732;51.472;6.466;2022-11-20T11:14:48;3.40;99.90
21149;DHT22;10732;51.472;6.466;2022-11-20T11:22:32;3.50;99.90
21149;DHT22;10732;51.472;6.466;2022-11-20T11:24:57;3.50;99.90
21149;DHT22;10732;51.472;6.466;2022-11-20T11:27:23;3.40;99.90
21149;DHT22;10732;51.472;6.466;2022-11-20T11:29:49;3.40;99.90
21149;DHT22;10732;51.472;6.466;2022-11-20T11:32:18;3.40;99.90
21149;DHT22;10732;51.472;6.466;2022-11-20T11:34:44;3.40;99.90
21149;DHT22;10732;51.472;6.466;2022-11-20T11:37:20;3.60;99.90
21149;DHT22;10732;51.472;6.466;2022-11-20T11:39:49;3.60;99.90
21149;DHT22;10732;51.472;6.466;2022-11-20T11:42:18;3.70;99.90
21149;DHT22;10732;51.472;6.466;2022-11-20T11:44:46;3.70;99.90
21149;DHT22;10732;51.472;6.466;2022-11-20T11:52:38;3.90;99.90
21149;DHT22;10732;51.472;6.466;2022-11-20T11:55:14;4.00;99.90
21149;DHT22;10732;51.472;6.466;2022-11-20T11:57:53;4.10;99.90
21149;DHT22;10732;51.472;6.466;2022-11-20T12:00:21;4.10;99.90
21149;DHT22;10732;51.472;6.466;2022-11-20T12:07:57;4.30;99.90
21149;DHT22;10732;51.472;6.466;2022-11-20T12:15:49;4.50;99.90
21149;DHT22;10732;51.472;6.466;2022-11-20T12:18:18;4.60;99.90
21149;DHT22;10732;51.472;6.466;2022-11-20T12:34:56;4.80;99.90
21149;DHT22;10732;51.472;6.466;2022-11-20T12:37:47;4.70;99.90
21149;DHT22;10732;51.472;6.466;2022-11-20T12:40:35;4.80;99.90
21149;DHT22;10732;51.472;6.466;2022-11-20T12:43:27;4.90;99.90
21149;DHT22;10732;51.472;6.466;2022-11-20T12:46:38;4.80;99.90
21149;DHT22;10732;51.472;6.466;2022-11-20T12:49:26;4.70;99.90
21149;DHT22;10732;51.472;6.466;2022-11-20T12:52:06;4.60;99.90
21149;DHT22;10732;51.472;6.466;2022-11-20T13:00:11;4.60;99.90
21149;DHT22;10732;51.472;6.466;2022-11-20T13:05:17;4.60;99.90
21149;DHT22;10732;51.472;6.466;2022-11-20T13:07:44;4.30;99.90
21149;DHT22;10732;51.472;6.466;2022-11-20T13:10:18;4.20;99.90
21149;DHT22;10732;51.472;6.466;2022-11-20T13:12:50;4.20;99.90
21149;DHT22;10732;51.472;6.466;2022-11-20T13:15:40;4.20;99.90
21149;DHT22;10732;51.472;6.466;2022-11-20T13:18:09;4.20;99.90
21149;DHT22;10732;51.472;6.466;2022-11-20T13:20:36;4.20;99.90
21149;DHT22;10732;51.472;6.466;2022-11-20T13:23:06;4.20;99.90
21149;DHT22;10732;51.472;6.466;2022-11-20T13:25:37;4.20;99.90
21149;DHT22;10732;51.472;6.466;2022-11-20T13:30:35;4.00;99.90
21149;DHT22;10732;51.472;6.466;2022-11-20T13:33:22;4.10;99.90
21149;DHT22;10732;51.472;6.466;2022-11-20T13:36:21;4.00;99.90
21149;DHT22;10732;51.472;6.466;2022-11-20T13:38:50;4.10;99.90
21149;DHT22;10732;51.472;6.466;2022-11-20T13:41:28;4.10;99.90
21149;DHT22;10732;51.472;6.466;2022-11-20T13:43:59;4.00;99.90
21149;DHT22;10732;51.472;6.466;2022-11-20T13:46:45;4.00;99.90
21149;DHT22;10732;51.472;6.466;2022-11-20T13:49:26;4.00;99.90
21149;DHT22;10732;51.472;6.466;2022-11-20T13:57:52;4.10;99.90
21149;DHT22;10732;51.472;6.466;2022-11-20T14:00:22;4.10;99.90
21149;DHT22;10732;51.472;6.466;2022-11-20T14:03:21;4.20;99.90
21149;DHT22;10732;51.472;6.466;2022-11-20T14:06:02;4.20;99.90
21149;DHT22;10732;51.472;6.466;2022-11-20T14:08:33;4.20;99.90
21149;DHT22;10732;51.472;6.466;2022-11-20T14:11:03;4.10;99.90
21149;DHT22;10732;51.472;6.466;2022-11-20T14:13:29;4.10;99.90
21149;DHT22;10732;51.472;6.466;2022-11-20T14:15:58;4.10;99.90
21149;DHT22;10732;51.472;6.466;2022-11-20T14:18:25;4.10;99.90
21149;DHT22;10732;51.472;6.466;2022-11-20T14:20:51;4.10;99.90
21149;DHT22;10732;51.472;6.466;2022-11-20T14:23:28;4.20;99.90
21149;DHT22;10732;51.472;6.466;2022-11-20T14:25:54;4.20;99.90
21149;DHT22;10732;51.472;6.466;2022-11-20T14:28:28;4.20;99.90
21149;DHT22;10732;51.472;6.466;2022-11-20T14:30:54;4.20;99.90
21149;DHT22;10732;51.472;6.466;2022-11-20T14:33:21;4.20;99.90
21149;DHT22;10732;51.472;6.466;2022-11-20T14:35:55;4.10;99.90
21149;DHT22;10732;51.472;6.466;2022-11-20T14:38:27;4.20;99.90
21149;DHT22;10732;51.472;6.466;2022-11-20T14:40:53;4.20;99.90
21149;DHT22;10732;51.472;6.466;2022-11-20T14:43:26;4.20;99.90
21149;DHT22;10732;51.472;6.466;2022-11-20T14:48:34;4.20;99.90
21149;DHT22;10732;51.472;6.466;2022-11-20T14:51:02;4.20;99.90
21149;DHT22;10732;51.472;6.466;2022-11-20T14:53:28;4.20;99.90
21149;DHT22;10732;51.472;6.466;2022-11-20T14:55:58;4.10;99.90
21149;DHT22;10732;51.472;6.466;2022-11-20T14:58:27;4.10;99.90
21149;DHT22;10732;51.472;6.466;2022-11-20T15:01:04;4.10;99.90
21149;DHT22;10732;51.472;6.466;2022-11-20T15:03:38;4.20;99.90
21149;DHT22;10732;51.472;6.466;2022-11-20T15:06:06;4.20;99.90
21149;DHT22;10732;51.472;6.466;2022-11-20T15:08:33;4.10;99.90
21149;DHT22;10732;51.472;6.466;2022-11-20T15:10:59;4.10;99.90
21149;DHT22;10732;51.472;6.466;2022-11-20T15:13:30;4.10;99.90
21149;DHT22;10732;51.472;6.466;2022-11-20T15:15:58;4.10;99.90
21149;DHT22;10732;51.472;6.466;2022-11-20T15:18:31;4.10;99.90
21149;DHT22;10732;51.472;6.466;2022-11-20T15:21:03;4.20;99.90
21149;DHT22;10732;51.472;6.466;2022-11-20T15:23:29;4.20;99.90
21149;DHT22;10732;51.472;6.466;2022-11-20T15:25:55;4.20;99.90
21149;DHT22;10732;51.472;6.466;2022-11-20T15:28:27;4.30;99.90
21149;DHT22;10732;51.472;6.466;2022-11-20T15:30:54;4.20;99.90
21149;DHT22;10732;51.472;6.466;2022-11-20T15:33:21;4.20;99.90
21149;DHT22;10732;51.472;6.466;2022-11-20T15:35:46;4.20;99.90
21149;DHT22;10732;51.472;6.466;2022-11-20T15:38:12;4.20;99.90
21149;DHT22;10732;51.472;6.466;2022-11-20T15:40:38;4.20;99.90
21149;DHT22;10732;51.472;6.466;2022-11-20T15:43:04;4.20;99.90
21149;DHT22;10732;51.472;6.466;2022-11-20T15:45:42;4.20;99.90
21149;DHT22;10732;51.472;6.466;2022-11-20T15:48:14;4.20;99.90
21149;DHT22;10732;51.472;6.466;2022-11-20T15:50:57;4.20;99.90
21149;DHT22;10732;51.472;6.466;2022-11-20T15:53:23;4.30;99.90
21149;DHT22;10732;51.472;6.466;2022-11-20T15:55:49;4.30;99.90
21149;DHT22;10732;51.472;6.466;2022-11-20T15:58:14;4.30;99.90
21149;DHT22;10732;51.472;6.466;2022-11-20T16:00:42;4.30;99.90
21149;DHT22;10732;51.472;6.466;2022-11-20T16:03:11;4.30;99.90
21149;DHT22;10732;51.472;6.466;2022-11-20T16:05:36;4.30;99.90
21149;DHT22;10732;51.472;6.466;2022-11-20T16:08:02;4.30;99.90
21149;DHT22;10732;51.472;6.466;2022-11-20T16:10:28;4.30;99.90
21149;DHT22;10732;51.472;6.466;2022-11-20T16:12:54;4.30;99.90
21149;DHT22;10732;51.472;6.466;2022-11-20T16:15:38;4.30;99.90
21149;DHT22;10732;51.472;6.466;2022-11-20T16:18:21;4.30;99.90
21149;DHT22;10732;51.472;6.466;2022-11-20T16:20:49;4.30;99.90
21149;DHT22;10732;51.472;6.466;2022-11-20T16:23:16;4.30;99.90
21149;DHT22;10732;51.472;6.466;2022-11-20T16:25:43;4.30;99.90
21149;DHT22;10732;51.472;6.466;2022-11-20T16:28:09;4.30;99.90
21149;DHT22;10732;51.472;6.466;2022-11-20T16:30:35;4.40;99.90
21149;DHT22;10732;51.472;6.466;2022-11-20T16:33:01;4.40;99.90
21149;DHT22;10732;51.472;6.466;2022-11-20T16:35:27;4.40;99.90
21149;DHT22;10732;51.472;6.466;2022-11-20T16:37:54;4.30;99.90
21149;DHT22;10732;51.472;6.466;2022-11-20T16:40:19;4.30;99.90
21149;DHT22;10732;51.472;6.466;2022-11-20T16:42:45;4.30;99.90
21149;DHT22;10732;51.472;6.466;2022-11-20T16:45:10;4.30;99.90
21149;DHT22;10732;51.472;6.466;2022-11-20T16:47:36;4.30;99.90
21149;DHT22;10732;51.472;6.466;2022-11-20T16:50:03;4.30;99.90
21149;DHT22;10732;51.472;6.466;2022-11-20T16:52:29;4.30;99.90
21149;DHT22;10732;51.472;6.466;2022-11-20T16:54:55;4.30;99.90
21149;DHT22;10732;51.472;6.466;2022-11-20T16:57:21;4.30;99.90
21149;DHT22;10732;51.472;6.466;2022-11-20T16:59:47;4.40;99.90
21149;DHT22;10732;51.472;6.466;2022-11-20T17:02:13;4.40;99.90
21149;DHT22;10732;51.472;6.466;2022-11-20T17:04:38;4.40;99.90
21149;DHT22;10732;51.472;6.466;2022-11-20T17:07:04;4.40;99.90
21149;DHT22;10732;51.472;6.466;2022-11-20T17:09:29;4.50;99.90
21149;DHT22;10732;51.472;6.466;2022-11-20T17:11:55;4.50;99.90
21149;DHT22;10732;51.472;6.466;2022-11-20T17:14:20;4.50;99.90
21149;DHT22;10732;51.472;6.466;2022-11-20T17:16:46;4.50;99.90
21149;DHT22;10732;51.472;6.466;2022-11-20T17:19:13;4.50;99.90
21149;DHT22;10732;51.472;6.466;2022-11-20T17:21:39;4.50;99.90